createdAt,value
2022-12-12T00:01:04.478Z,2.38
2022-12-12T00:06:27.040Z,3.22
2022-12-12T00:11:48.699Z,2.15
2022-12-12T00:17:10.506Z,2.05
2022-12-12T00:22:32.344Z,1.75
2022-12-12T00:27:54.110Z,2.13
2022-12-12T00:33:15.784Z,1.88
2022-12-12T00:38:37.436Z,3.67
2022-12-12T00:43:59.124Z,2.75
2022-12-12T00:49:20.883Z,2.80
2022-12-12T00:54:42.693Z,1.75
2022-12-12T01:00:06.338Z,1.48
2022-12-12T01:05:28.440Z,2.47
2022-12-12T01:10:50.131Z,2.60
2022-12-12T01:16:12.827Z,1.27
2022-12-12T01:21:34.608Z,4.40
2022-12-12T01:26:56.273Z,2.28
2022-12-12T01:32:18.016Z,2.55
2022-12-12T01:37:40.883Z,2.00
2022-12-12T01:43:02.783Z,1.90
2022-12-12T01:48:30.203Z,1.45
2022-12-12T01:53:58.971Z,1.67
2022-12-12T01:59:24.435Z,1.85
2022-12-12T02:04:46.280Z,1.40
2022-12-12T02:10:08.650Z,2.60
2022-12-12T02:15:42.740Z,3.03
2022-12-12T02:21:16.229Z,1.52
2022-12-12T02:26:50.387Z,1.98
2022-12-12T02:32:22.253Z,1.10
2022-12-12T02:38:12.504Z,1.02
2022-12-12T02:44:19.143Z,1.10
2022-12-12T02:50:07.104Z,1.75
2022-12-12T02:55:32.466Z,1.30
2022-12-12T03:01:11.473Z,1.65
2022-12-12T03:07:00.928Z,1.40
2022-12-12T03:12:40.435Z,1.33
2022-12-12T03:18:05.110Z,1.70
2022-12-12T03:23:43.862Z,1.40
2022-12-12T03:29:16.590Z,1.65
2022-12-12T03:34:43.470Z,1.83
2022-12-12T03:40:10.437Z,1.75
2022-12-12T03:45:41.400Z,1.60
2022-12-12T03:51:12.043Z,1.50
2022-12-12T03:56:59.164Z,1.50
2022-12-12T04:02:38.565Z,1.70
2022-12-12T04:08:10.173Z,1.15
2022-12-12T04:13:57.024Z,2.00
2022-12-12T04:25:11.371Z,1.70
2022-12-12T04:30:35.214Z,1.00
2022-12-12T04:36:00.452Z,1.00
2022-12-12T04:41:23.314Z,1.00
2022-12-12T04:46:48.610Z,1.60
2022-12-12T04:52:13.770Z,1.00
2022-12-12T04:57:41.973Z,1.30
2022-12-12T05:03:16.480Z,1.42
2022-12-12T05:08:48.908Z,1.10
2022-12-12T05:14:15.565Z,0.90
2022-12-12T05:19:37.301Z,0.80
2022-12-12T05:24:59.024Z,1.70
2022-12-12T05:30:20.788Z,1.20
2022-12-12T05:35:42.495Z,0.80
2022-12-12T05:41:05.472Z,1.02
2022-12-12T05:46:27.246Z,1.05
2022-12-12T05:51:49.029Z,1.15
2022-12-12T05:57:10.776Z,0.85
2022-12-12T06:02:32.720Z,1.10
2022-12-12T06:07:54.446Z,1.10
2022-12-12T06:13:16.296Z,1.10
2022-12-12T06:18:38.076Z,3.70
2022-12-12T06:23:59.840Z,2.92
2022-12-12T06:29:21.754Z,1.63
2022-12-12T06:34:43.505Z,1.92
2022-12-12T06:40:05.785Z,2.47
2022-12-12T06:45:27.505Z,4.80
2022-12-12T06:50:49.233Z,3.20
2022-12-12T06:56:14.954Z,4.63
2022-12-12T07:06:58.560Z,4.40
2022-12-12T07:12:20.362Z,2.05
2022-12-12T07:17:42.117Z,1.90
2022-12-12T07:23:04.094Z,4.97
2022-12-12T07:28:25.901Z,1.33
2022-12-12T07:33:47.880Z,2.72
2022-12-12T07:39:09.894Z,5.72
2022-12-12T07:44:31.636Z,2.47
2022-12-12T07:49:54.742Z,3.65
2022-12-12T07:55:16.799Z,2.15
2022-12-12T08:00:38.549Z,3.45
2022-12-12T08:06:00.187Z,3.83
2022-12-12T08:11:24.395Z,2.13
2022-12-12T08:16:46.200Z,1.55
2022-12-12T08:22:08.774Z,1.83
2022-12-12T08:27:30.416Z,2.70
2022-12-12T08:32:52.150Z,14.25
2022-12-12T08:38:14.776Z,8.55
2022-12-12T08:43:38.026Z,4.22
2022-12-12T08:48:59.712Z,4.97
2022-12-12T08:54:21.449Z,12.45
2022-12-12T08:59:43.149Z,3.58
2022-12-12T09:05:05.502Z,3.88
2022-12-12T09:10:28.217Z,4.43
2022-12-12T09:15:51.906Z,5.60
2022-12-12T09:21:13.765Z,7.03
2022-12-12T09:26:35.437Z,6.15
2022-12-12T09:31:57.426Z,4.43
2022-12-12T09:37:19.195Z,2.60
2022-12-12T09:42:49.372Z,4.53
2022-12-12T09:48:19.290Z,3.53
2022-12-12T09:53:44.126Z,4.22
2022-12-12T09:59:25.054Z,5.73
2022-12-12T10:05:02.942Z,2.67
2022-12-12T10:10:31.574Z,3.45
2022-12-12T10:16:08.373Z,1.60
2022-12-12T10:21:34.158Z,3.22
2022-12-12T10:32:36.348Z,3.22
2022-12-12T10:38:00.714Z,2.20
2022-12-12T10:43:24.525Z,4.13
2022-12-12T10:48:48.586Z,2.45
2022-12-12T10:54:22.279Z,4.78
2022-12-12T10:59:46.795Z,4.63
2022-12-12T11:05:16.845Z,4.32
2022-12-12T11:10:38.624Z,2.55
2022-12-12T11:16:12.903Z,4.10
2022-12-12T11:21:36.808Z,3.42
2022-12-12T11:27:00.332Z,2.90
2022-12-12T11:32:30.008Z,3.65
2022-12-12T11:37:55.988Z,1.80
2022-12-12T11:43:29.168Z,3.08
2022-12-12T11:48:53.973Z,1.80
2022-12-12T11:54:22.865Z,6.77
2022-12-12T11:59:59.242Z,3.80
2022-12-12T12:05:28.088Z,3.88
2022-12-12T12:11:23.881Z,3.30
2022-12-12T12:16:47.219Z,2.17
2022-12-12T12:22:44.687Z,2.90
2022-12-12T12:33:49.256Z,7.63
2022-12-12T12:39:20.385Z,4.28
2022-12-12T12:44:47.884Z,5.85
2022-12-12T12:50:23.960Z,4.15
2022-12-12T12:55:50.820Z,3.25
2022-12-12T13:01:18.570Z,3.92
2022-12-12T13:06:47.411Z,7.03
2022-12-12T13:12:30.365Z,1.95
2022-12-12T13:18:04.689Z,3.97
2022-12-12T13:23:47.628Z,4.22
2022-12-12T13:29:29.330Z,6.03
2022-12-12T13:34:56.886Z,3.10
2022-12-12T13:40:28.596Z,3.45
2022-12-12T13:45:50.323Z,4.05
2022-12-12T13:51:31.137Z,2.00
2022-12-12T13:56:52.752Z,2.50
2022-12-12T14:02:23.363Z,1.98
2022-12-12T14:07:50.672Z,1.98
2022-12-12T14:13:21.333Z,3.92
2022-12-12T14:18:52.198Z,3.65
2022-12-12T14:24:32.549Z,4.68
2022-12-12T14:29:54.502Z,2.72
2022-12-12T14:35:31.528Z,2.45
2022-12-12T14:41:00.628Z,2.45
2022-12-12T14:46:22.327Z,3.13
2022-12-12T14:51:50.919Z,3.03
2022-12-12T14:57:19.756Z,2.10
2022-12-12T15:02:48.443Z,2.38
2022-12-12T15:08:19.359Z,3.15
2022-12-12T15:14:23.858Z,2.42
2022-12-12T15:19:52.313Z,2.50
2022-12-12T15:25:19.834Z,3.70
2022-12-12T15:30:43.985Z,2.60
2022-12-12T15:36:18.369Z,2.15
2022-12-12T15:41:40.495Z,3.10
2022-12-12T15:47:02.485Z,1.88
2022-12-12T15:52:30.574Z,2.83
2022-12-12T15:57:52.956Z,3.38
2022-12-12T16:03:17.367Z,3.90
2022-12-12T16:08:45.507Z,3.45
2022-12-12T16:14:37.058Z,2.70
2022-12-12T16:20:01.407Z,3.00
2022-12-12T16:25:29.538Z,3.17
2022-12-12T16:31:01.102Z,3.88
2022-12-12T16:36:22.749Z,7.03
2022-12-12T16:41:44.819Z,2.70
2022-12-12T16:47:23.753Z,3.72
2022-12-12T16:52:45.598Z,4.55
2022-12-12T16:58:07.796Z,4.18
2022-12-12T17:03:30.671Z,3.50
2022-12-12T17:08:52.405Z,3.28
2022-12-12T17:14:22.466Z,4.53
2022-12-12T17:19:44.257Z,5.18
2022-12-12T17:25:07.140Z,5.05
2022-12-12T17:30:29.039Z,3.88
2022-12-12T17:35:59.184Z,6.40
2022-12-12T17:41:21.049Z,4.63
2022-12-12T17:46:42.863Z,4.57
2022-12-12T17:52:05.051Z,5.65
2022-12-12T17:57:26.977Z,6.40
2022-12-12T18:02:48.753Z,5.75
2022-12-12T18:08:12.748Z,5.70
2022-12-12T18:13:35.261Z,5.95
2022-12-12T18:18:57.668Z,5.38
2022-12-12T18:24:21.573Z,5.60
2022-12-12T18:29:43.333Z,5.20
2022-12-12T18:35:05.453Z,4.45
2022-12-12T18:40:27.279Z,11.65
2022-12-12T18:45:49.023Z,7.45
2022-12-12T18:51:25.200Z,9.02
2022-12-12T18:56:47.477Z,5.40
2022-12-12T19:02:13.023Z,6.15
2022-12-12T19:07:34.720Z,8.73
2022-12-12T19:12:56.391Z,4.63
2022-12-12T19:18:18.111Z,5.32
2022-12-12T19:23:40.539Z,17.08
2022-12-12T19:29:05.171Z,12.25
2022-12-12T19:34:26.884Z,11.33
2022-12-12T19:39:50.794Z,13.32
2022-12-12T19:45:12.574Z,19.85
2022-12-12T19:50:37.512Z,20.35
2022-12-12T19:55:59.204Z,14.90
2022-12-12T20:01:28.698Z,12.35
2022-12-12T20:06:51.105Z,12.75
2022-12-12T20:12:13.046Z,11.73
2022-12-12T20:17:34.754Z,14.18
2022-12-12T20:22:56.503Z,17.70
2022-12-12T20:28:18.538Z,12.35
2022-12-12T20:33:40.942Z,17.65
2022-12-12T20:39:06.485Z,10.05
2022-12-12T20:49:51.162Z,16.30
2022-12-12T20:55:13.020Z,16.65
2022-12-12T21:00:36.699Z,12.20
2022-12-12T21:05:59.740Z,9.68
2022-12-12T21:11:24.017Z,11.93
2022-12-12T21:16:45.931Z,12.32
2022-12-12T21:22:08.558Z,7.25
2022-12-12T21:27:31.527Z,10.45
2022-12-12T21:32:53.234Z,10.15
2022-12-12T21:38:14.928Z,10.77
2022-12-12T21:43:37.116Z,9.63
2022-12-12T21:49:17.561Z,11.90
2022-12-12T21:54:39.499Z,7.28
2022-12-12T22:00:01.190Z,6.28
2022-12-12T22:05:22.923Z,10.30
2022-12-12T22:10:44.617Z,8.02
2022-12-12T22:16:10.705Z,9.30
2022-12-12T22:21:32.667Z,11.57
2022-12-12T22:26:54.481Z,9.18
2022-12-12T22:32:16.234Z,9.73
2022-12-12T22:37:38.060Z,7.07
2022-12-12T22:42:59.890Z,6.57
2022-12-12T22:48:21.738Z,6.07
2022-12-12T22:53:44.466Z,7.68
2022-12-12T22:59:06.962Z,14.75
2022-12-12T23:04:28.716Z,6.05
2022-12-12T23:09:52.947Z,4.88
2022-12-12T23:15:14.856Z,4.78
2022-12-12T23:20:36.730Z,6.80
2022-12-12T23:26:07.178Z,6.13
2022-12-12T23:31:34.922Z,5.22
2022-12-12T23:36:57.087Z,4.72
2022-12-12T23:42:18.818Z,4.80
2022-12-12T23:47:40.473Z,4.32
2022-12-12T23:53:07.541Z,4.18
2022-12-12T23:58:32.062Z,6.30
